sensor_id;sensor_type;location;lat;lon;timestamp;pressure;altitude;pressure_sealevel;temperature;humidity
35151;BME280;55720;51.972;4.624;2023-04-19T00:02:15;102570.72;;;7.25;100.00
35151;BME280;55720;51.972;4.624;2023-04-19T00:04:42;102568.81;;;7.26;100.00
35151;BME280;55720;51.972;4.624;2023-04-19T00:07:08;102561.16;;;7.28;100.00
35151;BME280;55720;51.972;4.624;2023-04-19T00:09:34;102565.84;;;7.32;100.00
35151;BME280;55720;51.972;4.624;2023-04-19T00:11:59;102564.47;;;7.35;100.00
35151;BME280;55720;51.972;4.624;2023-04-19T00:14:25;102561.19;;;7.33;100.00
35151;BME280;55720;51.972;4.624;2023-04-19T00:16:50;102560.91;;;7.29;100.00
35151;BME280;55720;51.972;4.624;2023-04-19T00:19:16;102552.44;;;7.26;100.00
35151;BME280;55720;51.972;4.624;2023-04-19T00:21:41;102554.88;;;7.27;100.00
35151;BME280;55720;51.972;4.624;2023-04-19T00:24:07;102559.81;;;7.25;100.00
35151;BME280;55720;51.972;4.624;2023-04-19T00:26:32;102547.50;;;7.28;100.00
35151;BME280;55720;51.972;4.624;2023-04-19T00:28:58;102548.34;;;7.23;100.00
35151;BME280;55720;51.972;4.624;2023-04-19T00:31:23;102547.47;;;7.18;100.00
35151;BME280;55720;51.972;4.624;2023-04-19T00:33:48;102534.38;;;7.20;100.00
35151;BME280;55720;51.972;4.624;2023-04-19T00:36:14;102544.72;;;7.13;100.00
35151;BME280;55720;51.972;4.624;2023-04-19T00:38:39;102529.72;;;7.15;100.00
35151;BME280;55720;51.972;4.624;2023-04-19T00:41:05;102531.38;;;7.31;100.00
35151;BME280;55720;51.972;4.624;2023-04-19T00:43:31;102525.94;;;7.41;100.00
35151;BME280;55720;51.972;4.624;2023-04-19T00:45:56;102513.94;;;7.53;100.00
35151;BME280;55720;51.972;4.624;2023-04-19T00:48:22;102515.59;;;7.64;100.00
35151;BME280;55720;51.972;4.624;2023-04-19T00:50:48;102517.00;;;7.66;100.00
35151;BME280;55720;51.972;4.624;2023-04-19T00:53:14;102520.56;;;7.77;100.00
35151;BME280;55720;51.972;4.624;2023-04-19T00:55:41;102518.09;;;7.90;100.00
35151;BME280;55720;51.972;4.624;2023-04-19T00:58:07;102507.69;;;8.03;100.00
35151;BME280;55720;51.972;4.624;2023-04-19T01:00:34;102520.78;;;8.11;100.00
35151;BME280;55720;51.972;4.624;2023-04-19T01:03:00;102520.78;;;8.26;100.00
35151;BME280;55720;51.972;4.624;2023-04-19T01:05:26;102522.19;;;8.38;100.00
35151;BME280;55720;51.972;4.624;2023-04-19T01:07:51;102524.63;;;8.45;100.00
35151;BME280;55720;51.972;4.624;2023-04-19T01:10:17;102524.84;;;8.54;100.00
35151;BME280;55720;51.972;4.624;2023-04-19T01:12:42;102528.16;;;8.61;100.00
35151;BME280;55720;51.972;4.624;2023-04-19T01:15:08;102533.88;;;8.69;100.00
35151;BME280;55720;51.972;4.624;2023-04-19T01:17:34;102542.59;;;8.76;100.00
35151;BME280;55720;51.972;4.624;2023-04-19T01:20:00;102536.28;;;8.81;100.00
35151;BME280;55720;51.972;4.624;2023-04-19T01:22:26;102536.03;;;8.82;100.00
35151;BME280;55720;51.972;4.624;2023-04-19T01:24:52;102533.25;;;8.87;100.00
35151;BME280;55720;51.972;4.624;2023-04-19T01:27:18;102530.50;;;8.87;100.00
35151;BME280;55720;51.972;4.624;2023-04-19T01:29:44;102534.88;;;8.94;100.00
35151;BME280;55720;51.972;4.624;2023-04-19T01:32:09;102534.31;;;8.97;100.00
35151;BME280;55720;51.972;4.624;2023-04-19T01:34:37;102532.66;;;9.01;100.00
35151;BME280;55720;51.972;4.624;2023-04-19T01:37:02;102538.41;;;9.04;100.00
35151;BME280;55720;51.972;4.624;2023-04-19T01:39:27;102549.31;;;9.09;100.00
35151;BME280;55720;51.972;4.624;2023-04-19T01:41:53;102543.31;;;9.07;100.00
35151;BME280;55720;51.972;4.624;2023-04-19T01:44:18;102549.91;;;9.01;100.00
35151;BME280;55720;51.972;4.624;2023-04-19T01:46:44;102539.03;;;8.86;100.00
35151;BME280;55720;51.972;4.624;2023-04-19T01:49:09;102539.38;;;8.64;100.00
35151;BME280;55720;51.972;4.624;2023-04-19T01:51:37;102529.81;;;8.52;100.00
35151;BME280;55720;51.972;4.624;2023-04-19T01:54:21;102527.09;;;8.42;100.00
35151;BME280;55720;51.972;4.624;2023-04-19T01:56:46;102527.09;;;8.36;100.00
35151;BME280;55720;51.972;4.624;2023-04-19T01:59:12;102518.59;;;8.23;100.00
35151;BME280;55720;51.972;4.624;2023-04-19T02:01:37;102519.72;;;8.17;100.00
35151;BME280;55720;51.972;4.624;2023-04-19T02:04:02;102513.13;;;8.18;100.00
35151;BME280;55720;51.972;4.624;2023-04-19T02:06:28;102506.03;;;8.17;100.00
35151;BME280;55720;51.972;4.624;2023-04-19T02:08:53;102506.84;;;8.12;100.00
35151;BME280;55720;51.972;4.624;2023-04-19T02:11:19;102512.63;;;8.06;100.00
35151;BME280;55720;51.972;4.624;2023-04-19T02:13:44;102503.56;;;8.00;100.00
35151;BME280;55720;51.972;4.624;2023-04-19T02:16:10;102507.16;;;7.96;100.00
35151;BME280;55720;51.972;4.624;2023-04-19T02:18:36;102505.75;;;7.93;100.00
35151;BME280;55720;51.972;4.624;2023-04-19T02:21:03;102506.34;;;7.95;100.00
35151;BME280;55720;51.972;4.624;2023-04-19T02:23:28;102500.31;;;7.98;100.00
35151;BME280;55720;51.972;4.624;2023-04-19T02:25:54;102503.84;;;7.93;100.00
35151;BME280;55720;51.972;4.624;2023-04-19T02:28:19;102509.06;;;7.95;100.00
35151;BME280;55720;51.972;4.624;2023-04-19T02:30:44;102504.69;;;7.94;100.00
35151;BME280;55720;51.972;4.624;2023-04-19T02:33:10;102501.13;;;7.93;100.00
35151;BME280;55720;51.972;4.624;2023-04-19T02:35:36;102503.59;;;7.95;100.00
35151;BME280;55720;51.972;4.624;2023-04-19T02:38:02;102501.69;;;7.96;100.00
35151;BME280;55720;51.972;4.624;2023-04-19T02:40:28;102500.56;;;7.97;100.00
35151;BME280;55720;51.972;4.624;2023-04-19T02:42:53;102499.75;;;7.96;100.00
35151;BME280;55720;51.972;4.624;2023-04-19T02:45:19;102507.16;;;7.96;100.00
35151;BME280;55720;51.972;4.624;2023-04-19T02:47:44;102494.28;;;7.96;100.00
35151;BME280;55720;51.972;4.624;2023-04-19T02:50:11;102499.47;;;7.98;100.00
35151;BME280;55720;51.972;4.624;2023-04-19T02:52:36;102490.16;;;8.04;100.00
35151;BME280;55720;51.972;4.624;2023-04-19T02:55:01;102492.63;;;8.05;100.00
35151;BME280;55720;51.972;4.624;2023-04-19T02:57:28;102490.44;;;8.07;100.00
35151;BME280;55720;51.972;4.624;2023-04-19T02:59:54;102490.69;;;8.11;100.00
35151;BME280;55720;51.972;4.624;2023-04-19T03:02:19;102495.09;;;8.12;100.00
35151;BME280;55720;51.972;4.624;2023-04-19T03:04:45;102483.88;;;8.13;100.00
35151;BME280;55720;51.972;4.624;2023-04-19T03:07:11;102484.97;;;8.17;100.00
35151;BME280;55720;51.972;4.624;2023-04-19T03:09:37;102483.59;;;8.20;100.00
35151;BME280;55720;51.972;4.624;2023-04-19T03:12:03;102480.28;;;8.18;100.00
35151;BME280;55720;51.972;4.624;2023-04-19T03:14:28;102484.13;;;8.22;100.00
35151;BME280;55720;51.972;4.624;2023-04-19T03:16:53;102479.47;;;8.22;100.00
35151;BME280;55720;51.972;4.624;2023-04-19T03:19:19;102478.38;;;8.23;100.00
35151;BME280;55720;51.972;4.624;2023-04-19T03:21:44;102483.31;;;8.26;100.00
35151;BME280;55720;51.972;4.624;2023-04-19T03:24:10;102474.56;;;8.29;100.00
35151;BME280;55720;51.972;4.624;2023-04-19T03:26:36;102472.66;;;8.30;100.00
35151;BME280;55720;51.972;4.624;2023-04-19T03:29:01;102474.00;;;8.32;100.00
35151;BME280;55720;51.972;4.624;2023-04-19T03:31:27;102469.34;;;8.33;100.00
35151;BME280;55720;51.972;4.624;2023-04-19T03:33:52;102469.91;;;8.35;100.00
35151;BME280;55720;51.972;4.624;2023-04-19T03:36:18;102480.03;;;8.34;100.00
35151;BME280;55720;51.972;4.624;2023-04-19T03:38:43;102470.75;;;8.35;100.00
35151;BME280;55720;51.972;4.624;2023-04-19T03:41:19;102459.78;;;8.35;100.00
35151;BME280;55720;51.972;4.624;2023-04-19T03:43:44;102461.97;;;8.38;100.00
35151;BME280;55720;51.972;4.624;2023-04-19T03:46:10;102465.22;;;8.40;100.00
35151;BME280;55720;51.972;4.624;2023-04-19T03:48:35;102470.44;;;8.42;100.00
35151;BME280;55720;51.972;4.624;2023-04-19T03:51:00;102468.22;;;8.44;100.00
35151;BME280;55720;51.972;4.624;2023-04-19T03:53:26;102466.88;;;8.42;100.00
35151;BME280;55720;51.972;4.624;2023-04-19T03:55:51;102470.69;;;8.46;100.00
35151;BME280;55720;51.972;4.624;2023-04-19T03:58:17;102479.44;;;8.48;100.00
35151;BME280;55720;51.972;4.624;2023-04-19T04:00:42;102489.56;;;8.52;100.00
35151;BME280;55720;51.972;4.624;2023-04-19T04:03:07;102488.75;;;8.52;100.00
35151;BME280;55720;51.972;4.624;2023-04-19T04:05:33;102488.22;;;8.50;100.00
35151;BME280;55720;51.972;4.624;2023-04-19T04:07:59;102498.03;;;8.51;100.00
35151;BME280;55720;51.972;4.624;2023-04-19T04:10:25;102494.22;;;8.52;100.00
35151;BME280;55720;51.972;4.624;2023-04-19T04:12:50;102493.38;;;8.56;100.00
35151;BME280;55720;51.972;4.624;2023-04-19T04:15:16;102505.44;;;8.55;100.00
35151;BME280;55720;51.972;4.624;2023-04-19T04:17:41;102500.22;;;8.54;100.00
35151;BME280;55720;51.972;4.624;2023-04-19T04:20:07;102505.69;;;8.54;100.00
35151;BME280;55720;51.972;4.624;2023-04-19T04:22:33;102508.16;;;8.55;100.00
35151;BME280;55720;51.972;4.624;2023-04-19T04:24:58;102510.34;;;8.58;100.00
35151;BME280;55720;51.972;4.624;2023-04-19T04:27:25;102512.81;;;8.60;100.00
35151;BME280;55720;51.972;4.624;2023-04-19T04:29:50;102523.22;;;8.58;100.00
35151;BME280;55720;51.972;4.624;2023-04-19T04:32:15;102529.25;;;8.60;100.00
35151;BME280;55720;51.972;4.624;2023-04-19T04:34:42;102532.81;;;8.60;100.00
35151;BME280;55720;51.972;4.624;2023-04-19T04:37:07;102525.94;;;8.63;100.00
35151;BME280;55720;51.972;4.624;2023-04-19T04:39:33;102532.81;;;8.60;100.00
35151;BME280;55720;51.972;4.624;2023-04-19T04:42:03;102536.63;;;8.64;100.00
35151;BME280;55720;51.972;4.624;2023-04-19T04:44:29;102540.44;;;8.68;100.00
35151;BME280;55720;51.972;4.624;2023-04-19T04:46:54;102542.91;;;8.70;100.00
35151;BME280;55720;51.972;4.624;2023-04-19T04:49:20;102541.25;;;8.69;100.00
35151;BME280;55720;51.972;4.624;2023-04-19T04:51:45;102550.84;;;8.71;100.00
35151;BME280;55720;51.972;4.624;2023-04-19T04:54:11;102554.66;;;8.75;100.00
35151;BME280;55720;51.972;4.624;2023-04-19T04:56:36;102554.94;;;8.74;100.00
35151;BME280;55720;51.972;4.624;2023-04-19T04:59:02;102562.06;;;8.75;100.00
35151;BME280;55720;51.972;4.624;2023-04-19T05:01:27;102557.69;;;8.79;100.00
35151;BME280;55720;51.972;4.624;2023-04-19T05:03:52;102566.69;;;8.84;100.00
35151;BME280;55720;51.972;4.624;2023-04-19T05:06:18;102572.69;;;8.86;100.00
35151;BME280;55720;51.972;4.624;2023-04-19T05:08:43;102575.16;;;8.83;100.00
35151;BME280;55720;51.972;4.624;2023-04-19T05:11:09;102574.06;;;8.84;100.00
35151;BME280;55720;51.972;4.624;2023-04-19T05:13:34;102586.41;;;8.81;100.00
35151;BME280;55720;51.972;4.624;2023-04-19T05:15:59;102580.13;;;8.76;100.00
35151;BME280;55720;51.972;4.624;2023-04-19T05:18:25;102580.16;;;8.71;100.00
35151;BME280;55720;51.972;4.624;2023-04-19T05:20:51;102587.28;;;8.67;100.00
35151;BME280;55720;51.972;4.624;2023-04-19T05:23:16;102589.72;;;8.68;100.00
35151;BME280;55720;51.972;4.624;2023-04-19T05:25:42;102582.88;;;8.71;100.00
35151;BME280;55720;51.972;4.624;2023-04-19T05:28:08;102593.56;;;8.67;100.00
35151;BME280;55720;51.972;4.624;2023-04-19T05:30:33;102603.13;;;8.65;100.00
35151;BME280;55720;51.972;4.624;2023-04-19T05:32:59;102605.88;;;8.65;100.00
35151;BME280;55720;51.972;4.624;2023-04-19T05:35:24;102608.31;;;8.76;100.00
35151;BME280;55720;51.972;4.624;2023-04-19T05:37:49;102611.38;;;8.75;100.00
35151;BME280;55720;51.972;4.624;2023-04-19T05:40:15;102619.00;;;8.83;100.00
35151;BME280;55720;51.972;4.624;2023-04-19T05:42:40;102617.91;;;8.89;100.00
35151;BME280;55720;51.972;4.624;2023-04-19T05:45:06;102636.72;;;9.16;100.00
35151;BME280;55720;51.972;4.624;2023-04-19T05:47:32;102638.00;;;9.87;100.00
35151;BME280;55720;51.972;4.624;2023-04-19T05:49:57;102663.78;;;9.92;100.00
35151;BME280;55720;51.972;4.624;2023-04-19T05:52:22;102678.31;;;9.97;100.00
35151;BME280;55720;51.972;4.624;2023-04-19T05:54:48;102689.75;;;10.14;100.00
35151;BME280;55720;51.972;4.624;2023-04-19T05:57:13;102699.16;;;9.98;100.00
35151;BME280;55720;51.972;4.624;2023-04-19T05:59:39;102700.59;;;9.80;100.00
35151;BME280;55720;51.972;4.624;2023-04-19T06:02:04;102709.53;;;10.50;100.00
35151;BME280;55720;51.972;4.624;2023-04-19T06:04:29;102717.63;;;10.99;100.00
35151;BME280;55720;51.972;4.624;2023-04-19T06:06:55;102732.13;;;10.76;100.00
35151;BME280;55720;51.972;4.624;2023-04-19T06:09:20;102735.75;;;10.32;100.00
35151;BME280;55720;51.972;4.624;2023-04-19T06:11:46;102740.31;;;9.98;100.00
35151;BME280;55720;51.972;4.624;2023-04-19T06:14:11;102733.88;;;9.64;100.00
35151;BME280;55720;51.972;4.624;2023-04-19T06:16:40;102747.44;;;9.99;100.00
35151;BME280;55720;51.972;4.624;2023-04-19T06:19:05;102737.31;;;9.95;100.00
35151;BME280;55720;51.972;4.624;2023-04-19T06:21:32;102742.50;;;9.96;100.00
35151;BME280;55720;51.972;4.624;2023-04-19T06:23:58;102747.00;;;10.31;100.00
35151;BME280;55720;51.972;4.624;2023-04-19T06:26:23;102753.69;;;10.10;100.00
35151;BME280;55720;51.972;4.624;2023-04-19T06:28:49;102758.69;;;10.52;100.00
35151;BME280;55720;51.972;4.624;2023-04-19T06:31:14;102767.63;;;10.28;100.00
35151;BME280;55720;51.972;4.624;2023-04-19T06:33:40;102765.34;;;10.79;100.00
35151;BME280;55720;51.972;4.624;2023-04-19T06:36:05;102769.63;;;11.24;100.00
35151;BME280;55720;51.972;4.624;2023-04-19T06:38:31;102774.75;;;10.73;100.00
35151;BME280;55720;51.972;4.624;2023-04-19T06:40:56;102783.50;;;11.38;100.00
35151;BME280;55720;51.972;4.624;2023-04-19T06:43:23;102777.63;;;13.09;100.00
35151;BME280;55720;51.972;4.624;2023-04-19T06:45:56;102788.50;;;14.28;100.00
35151;BME280;55720;51.972;4.624;2023-04-19T06:48:22;102813.13;;;15.10;100.00
35151;BME280;55720;51.972;4.624;2023-04-19T06:50:47;102822.56;;;16.93;100.00
35151;BME280;55720;51.972;4.624;2023-04-19T06:53:12;102810.72;;;16.36;100.00
35151;BME280;55720;51.972;4.624;2023-04-19T06:55:38;102813.03;;;15.24;100.00
35151;BME280;55720;51.972;4.624;2023-04-19T06:58:03;102821.06;;;15.87;100.00
35151;BME280;55720;51.972;4.624;2023-04-19T07:00:28;102805.34;;;16.39;100.00
35151;BME280;55720;51.972;4.624;2023-04-19T07:02:54;102794.19;;;18.18;100.00
35151;BME280;55720;51.972;4.624;2023-04-19T07:05:19;102779.41;;;18.55;100.00
35151;BME280;55720;51.972;4.624;2023-04-19T07:07:45;102780.53;;;19.08;100.00
35151;BME280;55720;51.972;4.624;2023-04-19T07:10:10;102780.56;;;18.04;100.00
35151;BME280;55720;51.972;4.624;2023-04-19T07:12:37;102797.75;;;18.48;100.00
35151;BME280;55720;51.972;4.624;2023-04-19T07:15:03;102789.56;;;17.55;100.00
35151;BME280;55720;51.972;4.624;2023-04-19T07:17:28;102785.53;;;16.63;100.00
35151;BME280;55720;51.972;4.624;2023-04-19T07:19:54;102792.16;;;16.45;100.00
35151;BME280;55720;51.972;4.624;2023-04-19T07:22:19;102793.34;;;17.59;100.00
35151;BME280;55720;51.972;4.624;2023-04-19T07:24:46;102793.00;;;15.80;100.00
35151;BME280;55720;51.972;4.624;2023-04-19T07:27:11;102808.69;;;15.32;100.00
35151;BME280;55720;51.972;4.624;2023-04-19T07:29:38;102800.91;;;16.21;100.00
35151;BME280;55720;51.972;4.624;2023-04-19T07:32:05;102795.44;;;17.07;100.00
35151;BME280;55720;51.972;4.624;2023-04-19T07:34:30;102789.53;;;17.17;100.00
35151;BME280;55720;51.972;4.624;2023-04-19T07:36:55;102785.47;;;16.97;100.00
35151;BME280;55720;51.972;4.624;2023-04-19T07:39:21;102794.19;;;15.96;100.00
35151;BME280;55720;51.972;4.624;2023-04-19T07:41:46;102798.75;;;15.31;100.00
35151;BME280;55720;51.972;4.624;2023-04-19T07:44:11;102799.25;;;15.33;100.00
35151;BME280;55720;51.972;4.624;2023-04-19T07:46:37;102817.22;;;14.55;100.00
35151;BME280;55720;51.972;4.624;2023-04-19T07:49:03;102799.59;;;16.01;100.00
35151;BME280;55720;51.972;4.624;2023-04-19T07:51:28;102789.34;;;15.62;100.00
35151;BME280;55720;51.972;4.624;2023-04-19T07:53:53;102799.47;;;15.14;100.00
35151;BME280;55720;51.972;4.624;2023-04-19T07:56:21;102813.47;;;14.37;100.00
35151;BME280;55720;51.972;4.624;2023-04-19T07:58:46;102817.63;;;14.84;100.00
35151;BME280;55720;51.972;4.624;2023-04-19T08:01:12;102809.28;;;14.75;100.00
35151;BME280;55720;51.972;4.624;2023-04-19T08:03:37;102802.41;;;16.27;100.00
35151;BME280;55720;51.972;4.624;2023-04-19T08:06:04;102777.66;;;17.63;100.00
35151;BME280;55720;51.972;4.624;2023-04-19T08:08:31;102736.84;;;19.33;100.00
35151;BME280;55720;51.972;4.624;2023-04-19T08:10:56;102724.84;;;20.41;100.00
35151;BME280;55720;51.972;4.624;2023-04-19T08:13:22;102735.22;;;20.17;100.00
35151;BME280;55720;51.972;4.624;2023-04-19T08:15:47;102747.88;;;18.63;100.00
35151;BME280;55720;51.972;4.624;2023-04-19T08:18:13;102745.34;;;18.58;100.00
35151;BME280;55720;51.972;4.624;2023-04-19T08:20:38;102744.28;;;18.63;100.00
35151;BME280;55720;51.972;4.624;2023-04-19T08:23:06;102746.69;;;18.73;100.00
35151;BME280;55720;51.972;4.624;2023-04-19T08:25:33;102751.44;;;18.73;100.00
35151;BME280;55720;51.972;4.624;2023-04-19T08:27:58;102745.50;;;18.74;100.00
35151;BME280;55720;51.972;4.624;2023-04-19T08:30:24;102727.13;;;19.87;100.00
35151;BME280;55720;51.972;4.624;2023-04-19T08:32:49;102724.34;;;18.94;100.00
35151;BME280;55720;51.972;4.624;2023-04-19T08:35:15;102729.66;;;18.33;100.00
35151;BME280;55720;51.972;4.624;2023-04-19T08:37:41;102742.06;;;18.36;100.00
35151;BME280;55720;51.972;4.624;2023-04-19T08:40:07;102754.00;;;16.76;100.00
35151;BME280;55720;51.972;4.624;2023-04-19T08:42:32;102752.84;;;17.58;100.00
35151;BME280;55720;51.972;4.624;2023-04-19T08:45:00;102745.38;;;16.60;100.00
35151;BME280;55720;51.972;4.624;2023-04-19T08:47:27;102731.34;;;18.26;100.00
35151;BME280;55720;51.972;4.624;2023-04-19T08:49:54;102735.31;;;17.66;100.00
35151;BME280;55720;51.972;4.624;2023-04-19T08:52:21;102740.66;;;16.69;97.29
35151;BME280;55720;51.972;4.624;2023-04-19T08:54:48;102759.38;;;16.90;100.00
35151;BME280;55720;51.972;4.624;2023-04-19T08:57:14;102744.38;;;18.34;100.00
35151;BME280;55720;51.972;4.624;2023-04-19T08:59:40;102729.88;;;17.99;98.31
35151;BME280;55720;51.972;4.624;2023-04-19T09:02:05;102729.34;;;18.05;96.79
35151;BME280;55720;51.972;4.624;2023-04-19T09:04:31;102741.22;;;17.56;97.98
35151;BME280;55720;51.972;4.624;2023-04-19T09:06:56;102741.34;;;17.97;99.42
35151;BME280;55720;51.972;4.624;2023-04-19T09:09:24;102746.81;;;16.32;97.41
35151;BME280;55720;51.972;4.624;2023-04-19T09:11:49;102750.13;;;15.69;100.00
35151;BME280;55720;51.972;4.624;2023-04-19T09:14:16;102753.25;;;15.85;100.00
35151;BME280;55720;51.972;4.624;2023-04-19T09:16:42;102771.50;;;15.77;100.00
35151;BME280;55720;51.972;4.624;2023-04-19T09:19:08;102751.25;;;15.37;100.00
35151;BME280;55720;51.972;4.624;2023-04-19T09:21:34;102754.25;;;15.49;100.00
35151;BME280;55720;51.972;4.624;2023-04-19T09:24:01;102753.75;;;15.16;100.00
35151;BME280;55720;51.972;4.624;2023-04-19T09:26:27;102753.41;;;15.80;100.00
35151;BME280;55720;51.972;4.624;2023-04-19T09:29:06;102744.53;;;16.34;100.00
35151;BME280;55720;51.972;4.624;2023-04-19T09:31:36;102742.72;;;16.98;100.00
35151;BME280;55720;51.972;4.624;2023-04-19T09:34:16;102738.66;;;15.53;95.22
35151;BME280;55720;51.972;4.624;2023-04-19T09:36:42;102731.28;;;16.14;99.09
35151;BME280;55720;51.972;4.624;2023-04-19T09:39:07;102728.06;;;16.20;97.67
35151;BME280;55720;51.972;4.624;2023-04-19T09:41:33;102717.63;;;15.52;91.98
35151;BME280;55720;51.972;4.624;2023-04-19T09:44:09;102739.75;;;14.46;93.52
35151;BME280;55720;51.972;4.624;2023-04-19T09:46:36;102738.69;;;15.00;95.98
35151;BME280;55720;51.972;4.624;2023-04-19T09:51:48;102728.81;;;14.41;93.83
35151;BME280;55720;51.972;4.624;2023-04-19T09:54:15;102724.81;;;14.34;92.62
35151;BME280;55720;51.972;4.624;2023-04-19T09:56:41;102727.19;;;13.91;91.76
35151;BME280;55720;51.972;4.624;2023-04-19T09:59:07;102722.59;;;14.22;90.88
35151;BME280;55720;51.972;4.624;2023-04-19T10:01:46;102711.66;;;13.81;87.99
35151;BME280;55720;51.972;4.624;2023-04-19T10:04:14;102733.75;;;14.30;92.96
35151;BME280;55720;51.972;4.624;2023-04-19T10:06:47;102715.00;;;14.41;90.21
35151;BME280;55720;51.972;4.624;2023-04-19T10:09:13;102732.50;;;14.50;92.40
35151;BME280;55720;51.972;4.624;2023-04-19T10:11:39;102727.72;;;14.28;91.45
35151;BME280;55720;51.972;4.624;2023-04-19T10:14:08;102738.69;;;14.56;99.29
35151;BME280;55720;51.972;4.624;2023-04-19T10:16:35;102724.97;;;14.51;94.86
35151;BME280;55720;51.972;4.624;2023-04-19T10:19:07;102720.91;;;14.12;90.27
35151;BME280;55720;51.972;4.624;2023-04-19T10:21:34;102729.44;;;14.38;94.27
35151;BME280;55720;51.972;4.624;2023-04-19T10:24:00;102715.66;;;14.11;86.49
35151;BME280;55720;51.972;4.624;2023-04-19T10:26:26;102708.41;;;14.15;87.54
35151;BME280;55720;51.972;4.624;2023-04-19T10:28:54;102705.16;;;14.49;87.31
35151;BME280;55720;51.972;4.624;2023-04-19T10:31:24;102696.28;;;14.60;83.68
35151;BME280;55720;51.972;4.624;2023-04-19T10:33:51;102699.53;;;14.62;84.18
35151;BME280;55720;51.972;4.624;2023-04-19T10:36:17;102704.88;;;14.59;86.71
35151;BME280;55720;51.972;4.624;2023-04-19T10:38:49;102703.94;;;14.41;84.56
35151;BME280;55720;51.972;4.624;2023-04-19T10:41:20;102686.75;;;14.30;82.60
35151;BME280;55720;51.972;4.624;2023-04-19T10:46:14;102697.53;;;14.18;83.87
35151;BME280;55720;51.972;4.624;2023-04-19T10:48:58;102704.03;;;14.14;85.38
35151;BME280;55720;51.972;4.624;2023-04-19T10:51:33;102704.50;;;14.52;86.38
35151;BME280;55720;51.972;4.624;2023-04-19T10:54:07;102692.69;;;14.38;82.29
35151;BME280;55720;51.972;4.624;2023-04-19T11:01:45;102689.75;;;14.78;83.24
35151;BME280;55720;51.972;4.624;2023-04-19T11:04:12;102688.09;;;15.39;86.24
35151;BME280;55720;51.972;4.624;2023-04-19T11:09:25;102691.38;;;14.35;85.09
35151;BME280;55720;51.972;4.624;2023-04-19T11:11:51;102697.81;;;14.30;85.84
35151;BME280;55720;51.972;4.624;2023-04-19T11:14:19;102697.59;;;14.85;89.75
35151;BME280;55720;51.972;4.624;2023-04-19T11:16:45;102695.69;;;14.94;88.16
35151;BME280;55720;51.972;4.624;2023-04-19T11:19:15;102700.16;;;14.82;86.92
35151;BME280;55720;51.972;4.624;2023-04-19T11:21:40;102691.28;;;14.26;83.97
35151;BME280;55720;51.972;4.624;2023-04-19T11:24:09;102682.38;;;13.94;83.39
35151;BME280;55720;51.972;4.624;2023-04-19T11:26:34;102684.44;;;14.24;86.32
35151;BME280;55720;51.972;4.624;2023-04-19T11:29:00;102695.53;;;14.32;86.57
35151;BME280;55720;51.972;4.624;2023-04-19T11:31:26;102674.66;;;14.40;85.57
35151;BME280;55720;51.972;4.624;2023-04-19T11:33:52;102682.50;;;14.24;86.50
35151;BME280;55720;51.972;4.624;2023-04-19T11:36:17;102680.38;;;14.21;86.37
35151;BME280;55720;51.972;4.624;2023-04-19T11:38:47;102665.06;;;14.38;85.42
35151;BME280;55720;51.972;4.624;2023-04-19T11:41:12;102699.06;;;14.60;90.58
35151;BME280;55720;51.972;4.624;2023-04-19T11:43:38;102678.97;;;14.32;88.80
35151;BME280;55720;51.972;4.624;2023-04-19T11:46:08;102683.34;;;14.69;92.26
35151;BME280;55720;51.972;4.624;2023-04-19T11:48:34;102677.31;;;14.98;92.82
35151;BME280;55720;51.972;4.624;2023-04-19T11:51:01;102671.16;;;14.48;87.58
35151;BME280;55720;51.972;4.624;2023-04-19T11:53:28;102670.38;;;14.78;93.07
35151;BME280;55720;51.972;4.624;2023-04-19T11:56:04;102666.38;;;15.24;91.69
35151;BME280;55720;51.972;4.624;2023-04-19T11:58:37;102662.84;;;15.01;88.85
35151;BME280;55720;51.972;4.624;2023-04-19T12:01:12;102668.38;;;15.01;87.22
35151;BME280;55720;51.972;4.624;2023-04-19T12:06:12;102645.63;;;15.04;87.56
35151;BME280;55720;51.972;4.624;2023-04-19T12:08:42;102619.38;;;14.93;82.71
35151;BME280;55720;51.972;4.624;2023-04-19T12:11:08;102629.75;;;14.88;84.23
35151;BME280;55720;51.972;4.624;2023-04-19T12:13:34;102645.59;;;15.44;85.52
35151;BME280;55720;51.972;4.624;2023-04-19T12:16:00;102616.91;;;15.31;79.77
35151;BME280;55720;51.972;4.624;2023-04-19T12:18:26;102623.84;;;15.51;84.19
35151;BME280;55720;51.972;4.624;2023-04-19T12:20:52;102606.44;;;15.19;77.66
35151;BME280;55720;51.972;4.624;2023-04-19T12:23:19;102611.56;;;15.43;78.59
35151;BME280;55720;51.972;4.624;2023-04-19T12:25:46;102615.34;;;15.56;81.17
35151;BME280;55720;51.972;4.624;2023-04-19T12:28:13;102603.66;;;16.10;79.99
35151;BME280;55720;51.972;4.624;2023-04-19T12:30:39;102597.72;;;16.46;77.10
35151;BME280;55720;51.972;4.624;2023-04-19T12:33:06;102609.31;;;16.57;79.46
35151;BME280;55720;51.972;4.624;2023-04-19T12:35:32;102624.19;;;16.27;80.90
35151;BME280;55720;51.972;4.624;2023-04-19T12:37:58;102604.09;;;15.44;76.87
35151;BME280;55720;51.972;4.624;2023-04-19T12:40:25;102603.66;;;15.59;76.56
35151;BME280;55720;51.972;4.624;2023-04-19T12:42:51;102605.03;;;15.39;75.41
35151;BME280;55720;51.972;4.624;2023-04-19T12:45:17;102602.16;;;15.05;73.25
35151;BME280;55720;51.972;4.624;2023-04-19T12:47:43;102603.69;;;15.19;75.00
35151;BME280;55720;51.972;4.624;2023-04-19T12:50:09;102607.97;;;14.95;72.59
35151;BME280;55720;51.972;4.624;2023-04-19T12:52:35;102600.66;;;15.47;73.70
35151;BME280;55720;51.972;4.624;2023-04-19T12:55:01;102589.66;;;15.64;72.90
35151;BME280;55720;51.972;4.624;2023-04-19T12:57:27;102581.59;;;15.37;72.71
35151;BME280;55720;51.972;4.624;2023-04-19T12:59:52;102598.69;;;15.30;74.17